sensor_id;sensor_type;location;lat;lon;timestamp;P1;durP1;ratioP1;P2;durP2;ratioP2
19863;SDS011;10094;48.820;9.226;2024-03-02T00:03:41;23.60;;;15.43;;
19863;SDS011;10094;48.820;9.226;2024-03-02T00:10:26;23.77;;;16.38;;
19863;SDS011;10094;48.820;9.226;2024-03-02T00:17:16;19.20;;;13.75;;
19863;SDS011;10094;48.820;9.226;2024-03-02T00:24:01;26.50;;;16.67;;
19863;SDS011;10094;48.820;9.226;2024-03-02T00:30:51;24.85;;;15.00;;
19863;SDS011;10094;48.820;9.226;2024-03-02T00:37:37;26.98;;;16.95;;
19863;SDS011;10094;48.820;9.226;2024-03-02T00:44:20;26.50;;;15.35;;
19863;SDS011;10094;48.820;9.226;2024-03-02T00:51:06;19.42;;;12.82;;
19863;SDS011;10094;48.820;9.226;2024-03-02T00:57:49;23.08;;;14.27;;
19863;SDS011;10094;48.820;9.226;2024-03-02T01:04:32;18.92;;;13.05;;
19863;SDS011;10094;48.820;9.226;2024-03-02T01:11:15;20.38;;;12.93;;
19863;SDS011;10094;48.820;9.226;2024-03-02T01:17:58;21.05;;;13.63;;
19863;SDS011;10094;48.820;9.226;2024-03-02T01:24:40;41.22;;;21.42;;
19863;SDS011;10094;48.820;9.226;2024-03-02T01:31:23;80.38;;;44.45;;
19863;SDS011;10094;48.820;9.226;2024-03-02T01:38:06;35.55;;;23.77;;
19863;SDS011;10094;48.820;9.226;2024-03-02T01:44:48;30.88;;;18.40;;
19863;SDS011;10094;48.820;9.226;2024-03-02T01:51:31;23.35;;;14.73;;
19863;SDS011;10094;48.820;9.226;2024-03-02T01:58:16;28.17;;;19.50;;
19863;SDS011;10094;48.820;9.226;2024-03-02T02:04:59;21.73;;;14.05;;
19863;SDS011;10094;48.820;9.226;2024-03-02T02:11:42;55.13;;;34.95;;
19863;SDS011;10094;48.820;9.226;2024-03-02T02:18:25;19.17;;;13.85;;
19863;SDS011;10094;48.820;9.226;2024-03-02T02:25:07;18.08;;;13.00;;
19863;SDS011;10094;48.820;9.226;2024-03-02T02:31:50;20.48;;;13.25;;
19863;SDS011;10094;48.820;9.226;2024-03-02T02:38:33;20.48;;;12.57;;
19863;SDS011;10094;48.820;9.226;2024-03-02T02:45:17;19.75;;;12.82;;
19863;SDS011;10094;48.820;9.226;2024-03-02T02:51:59;17.58;;;12.18;;
19863;SDS011;10094;48.820;9.226;2024-03-02T02:58:42;22.02;;;11.85;;
19863;SDS011;10094;48.820;9.226;2024-03-02T03:05:25;17.42;;;12.70;;
19863;SDS011;10094;48.820;9.226;2024-03-02T03:12:08;21.83;;;13.65;;
19863;SDS011;10094;48.820;9.226;2024-03-02T03:18:51;21.65;;;12.95;;
19863;SDS011;10094;48.820;9.226;2024-03-02T03:25:35;18.65;;;12.50;;
19863;SDS011;10094;48.820;9.226;2024-03-02T03:32:17;18.83;;;12.98;;
19863;SDS011;10094;48.820;9.226;2024-03-02T03:39:00;22.40;;;14.80;;
19863;SDS011;10094;48.820;9.226;2024-03-02T03:45:44;22.90;;;12.60;;
19863;SDS011;10094;48.820;9.226;2024-03-02T03:52:27;19.88;;;13.30;;
19863;SDS011;10094;48.820;9.226;2024-03-02T03:59:10;20.50;;;13.30;;
19863;SDS011;10094;48.820;9.226;2024-03-02T04:05:52;19.95;;;13.80;;
19863;SDS011;10094;48.820;9.226;2024-03-02T04:12:38;19.77;;;13.05;;
19863;SDS011;10094;48.820;9.226;2024-03-02T04:19:21;20.00;;;13.18;;
19863;SDS011;10094;48.820;9.226;2024-03-02T04:26:03;21.13;;;13.85;;
19863;SDS011;10094;48.820;9.226;2024-03-02T04:32:46;19.58;;;13.98;;
19863;SDS011;10094;48.820;9.226;2024-03-02T04:39:30;23.20;;;14.27;;
19863;SDS011;10094;48.820;9.226;2024-03-02T04:46:13;21.52;;;13.90;;
19863;SDS011;10094;48.820;9.226;2024-03-02T04:52:55;24.38;;;13.98;;
19863;SDS011;10094;48.820;9.226;2024-03-02T04:59:38;23.63;;;14.63;;
19863;SDS011;10094;48.820;9.226;2024-03-02T05:06:21;21.98;;;13.32;;
19863;SDS011;10094;48.820;9.226;2024-03-02T05:13:04;24.10;;;13.48;;
19863;SDS011;10094;48.820;9.226;2024-03-02T05:19:47;20.75;;;13.95;;
19863;SDS011;10094;48.820;9.226;2024-03-02T05:26:31;22.80;;;15.20;;
19863;SDS011;10094;48.820;9.226;2024-03-02T05:33:13;30.33;;;21.27;;
19863;SDS011;10094;48.820;9.226;2024-03-02T05:39:57;24.02;;;15.05;;
19863;SDS011;10094;48.820;9.226;2024-03-02T05:46:41;26.75;;;15.90;;
19863;SDS011;10094;48.820;9.226;2024-03-02T05:53:24;24.10;;;15.55;;
19863;SDS011;10094;48.820;9.226;2024-03-02T06:00:07;24.55;;;15.38;;
19863;SDS011;10094;48.820;9.226;2024-03-02T06:06:54;19.35;;;12.95;;
19863;SDS011;10094;48.820;9.226;2024-03-02T06:13:38;23.00;;;14.23;;
19863;SDS011;10094;48.820;9.226;2024-03-02T06:20:21;27.80;;;16.00;;
19863;SDS011;10094;48.820;9.226;2024-03-02T06:27:05;24.27;;;14.05;;
19863;SDS011;10094;48.820;9.226;2024-03-02T06:33:49;24.60;;;15.20;;
19863;SDS011;10094;48.820;9.226;2024-03-02T06:40:31;21.27;;;13.85;;
19863;SDS011;10094;48.820;9.226;2024-03-02T06:47:15;20.17;;;14.00;;
19863;SDS011;10094;48.820;9.226;2024-03-02T06:53:58;23.27;;;15.57;;
19863;SDS011;10094;48.820;9.226;2024-03-02T07:00:41;19.33;;;13.45;;
19863;SDS011;10094;48.820;9.226;2024-03-02T07:07:24;22.63;;;14.38;;
19863;SDS011;10094;48.820;9.226;2024-03-02T07:14:07;24.60;;;15.23;;
19863;SDS011;10094;48.820;9.226;2024-03-02T07:20:49;19.15;;;13.15;;
19863;SDS011;10094;48.820;9.226;2024-03-02T07:27:32;18.42;;;12.40;;
19863;SDS011;10094;48.820;9.226;2024-03-02T07:34:15;15.32;;;11.05;;
19863;SDS011;10094;48.820;9.226;2024-03-02T07:40:57;13.55;;;10.05;;
19863;SDS011;10094;48.820;9.226;2024-03-02T07:47:40;10.98;;;8.93;;
19863;SDS011;10094;48.820;9.226;2024-03-02T07:54:23;9.95;;;8.52;;
19863;SDS011;10094;48.820;9.226;2024-03-02T08:01:06;9.95;;;7.88;;
19863;SDS011;10094;48.820;9.226;2024-03-02T08:07:48;8.15;;;6.80;;
19863;SDS011;10094;48.820;9.226;2024-03-02T08:14:34;10.68;;;7.32;;
19863;SDS011;10094;48.820;9.226;2024-03-02T08:21:17;10.52;;;8.00;;
19863;SDS011;10094;48.820;9.226;2024-03-02T08:27:59;11.98;;;7.45;;
19863;SDS011;10094;48.820;9.226;2024-03-02T08:34:42;11.43;;;7.60;;
19863;SDS011;10094;48.820;9.226;2024-03-02T08:41:25;11.10;;;7.93;;
19863;SDS011;10094;48.820;9.226;2024-03-02T08:48:08;8.05;;;7.20;;
19863;SDS011;10094;48.820;9.226;2024-03-02T08:54:50;8.73;;;7.28;;
19863;SDS011;10094;48.820;9.226;2024-03-02T09:01:33;10.15;;;7.63;;
19863;SDS011;10094;48.820;9.226;2024-03-02T09:08:15;11.48;;;8.45;;
19863;SDS011;10094;48.820;9.226;2024-03-02T09:14:59;8.73;;;7.10;;
19863;SDS011;10094;48.820;9.226;2024-03-02T09:21:43;6.80;;;6.10;;
19863;SDS011;10094;48.820;9.226;2024-03-02T09:28:25;5.80;;;5.20;;
19863;SDS011;10094;48.820;9.226;2024-03-02T09:35:09;5.28;;;4.68;;
19863;SDS011;10094;48.820;9.226;2024-03-02T09:41:53;5.22;;;4.25;;
19863;SDS011;10094;48.820;9.226;2024-03-02T09:48:37;10.38;;;4.47;;
19863;SDS011;10094;48.820;9.226;2024-03-02T09:55:20;5.60;;;4.05;;
19863;SDS011;10094;48.820;9.226;2024-03-02T10:02:03;5.03;;;4.35;;
19863;SDS011;10094;48.820;9.226;2024-03-02T10:08:48;4.78;;;4.07;;
19863;SDS011;10094;48.820;9.226;2024-03-02T10:15:31;5.30;;;3.70;;
19863;SDS011;10094;48.820;9.226;2024-03-02T10:22:14;4.03;;;3.65;;
19863;SDS011;10094;48.820;9.226;2024-03-02T10:28:56;4.00;;;3.65;;
19863;SDS011;10094;48.820;9.226;2024-03-02T10:35:41;3.90;;;3.15;;
19863;SDS011;10094;48.820;9.226;2024-03-02T10:42:24;4.35;;;3.30;;
19863;SDS011;10094;48.820;9.226;2024-03-02T10:49:07;4.03;;;3.65;;
19863;SDS011;10094;48.820;9.226;2024-03-02T10:55:50;4.38;;;3.58;;
19863;SDS011;10094;48.820;9.226;2024-03-02T11:03:06;3.17;;;2.88;;
19863;SDS011;10094;48.820;9.226;2024-03-02T11:09:55;3.83;;;3.40;;
19863;SDS011;10094;48.820;9.226;2024-03-02T11:16:40;2.88;;;2.25;;
19863;SDS011;10094;48.820;9.226;2024-03-02T11:23:32;4.22;;;3.38;;
19863;SDS011;10094;48.820;9.226;2024-03-02T11:30:48;5.35;;;2.88;;
19863;SDS011;10094;48.820;9.226;2024-03-02T11:37:22;2.38;;;1.98;;
19863;SDS011;10094;48.820;9.226;2024-03-02T11:44:07;2.97;;;2.22;;
19863;SDS011;10094;48.820;9.226;2024-03-02T11:50:53;4.00;;;2.05;;
19863;SDS011;10094;48.820;9.226;2024-03-02T11:57:40;2.63;;;2.00;;
19863;SDS011;10094;48.820;9.226;2024-03-02T12:04:23;2.35;;;1.90;;
19863;SDS011;10094;48.820;9.226;2024-03-02T12:11:06;1.40;;;1.13;;
19863;SDS011;10094;48.820;9.226;2024-03-02T12:17:52;2.20;;;1.20;;
19863;SDS011;10094;48.820;9.226;2024-03-02T12:24:35;2.72;;;1.15;;
19863;SDS011;10094;48.820;9.226;2024-03-02T12:31:19;2.47;;;1.50;;
19863;SDS011;10094;48.820;9.226;2024-03-02T12:38:02;1.30;;;1.20;;
19863;SDS011;10094;48.820;9.226;2024-03-02T12:44:45;1.38;;;0.90;;
19863;SDS011;10094;48.820;9.226;2024-03-02T12:51:28;1.10;;;1.00;;
19863;SDS011;10094;48.820;9.226;2024-03-02T12:58:19;2.35;;;1.33;;
19863;SDS011;10094;48.820;9.226;2024-03-02T13:05:03;1.33;;;1.00;;
19863;SDS011;10094;48.820;9.226;2024-03-02T13:11:46;1.17;;;1.00;;
19863;SDS011;10094;48.820;9.226;2024-03-02T13:18:29;0.95;;;0.90;;
19863;SDS011;10094;48.820;9.226;2024-03-02T13:25:13;2.28;;;1.13;;
19863;SDS011;10094;48.820;9.226;2024-03-02T13:31:56;1.15;;;1.05;;
19863;SDS011;10094;48.820;9.226;2024-03-02T13:38:39;1.60;;;1.00;;
19863;SDS011;10094;48.820;9.226;2024-03-02T13:45:22;1.35;;;1.17;;
19863;SDS011;10094;48.820;9.226;2024-03-02T13:52:07;1.45;;;1.33;;
19863;SDS011;10094;48.820;9.226;2024-03-02T13:58:55;3.40;;;1.60;;
19863;SDS011;10094;48.820;9.226;2024-03-02T14:05:37;1.42;;;1.33;;
19863;SDS011;10094;48.820;9.226;2024-03-02T14:12:20;2.03;;;1.60;;
19863;SDS011;10094;48.820;9.226;2024-03-02T14:19:04;1.50;;;1.40;;
19863;SDS011;10094;48.820;9.226;2024-03-02T14:25:47;2.15;;;1.23;;
19863;SDS011;10094;48.820;9.226;2024-03-02T14:32:30;3.60;;;1.50;;
19863;SDS011;10094;48.820;9.226;2024-03-02T14:39:13;2.13;;;1.42;;
19863;SDS011;10094;48.820;9.226;2024-03-02T14:45:56;3.85;;;1.80;;
19863;SDS011;10094;48.820;9.226;2024-03-02T14:52:41;1.15;;;1.05;;
19863;SDS011;10094;48.820;9.226;2024-03-02T14:59:27;2.03;;;1.50;;
19863;SDS011;10094;48.820;9.226;2024-03-02T15:06:10;2.58;;;1.48;;
19863;SDS011;10094;48.820;9.226;2024-03-02T15:12:53;1.30;;;1.20;;
19863;SDS011;10094;48.820;9.226;2024-03-02T15:19:35;2.17;;;1.00;;
19863;SDS011;10094;48.820;9.226;2024-03-02T15:26:18;2.67;;;1.70;;
19863;SDS011;10094;48.820;9.226;2024-03-02T15:33:01;1.70;;;1.05;;
19863;SDS011;10094;48.820;9.226;2024-03-02T15:39:44;5.60;;;3.88;;
19863;SDS011;10094;48.820;9.226;2024-03-02T15:46:27;1.55;;;1.20;;
19863;SDS011;10094;48.820;9.226;2024-03-02T15:53:09;1.50;;;1.17;;
19863;SDS011;10094;48.820;9.226;2024-03-02T15:59:53;1.40;;;1.30;;
19863;SDS011;10094;48.820;9.226;2024-03-02T16:06:35;3.53;;;1.65;;
19863;SDS011;10094;48.820;9.226;2024-03-02T16:13:18;2.47;;;1.55;;
19863;SDS011;10094;48.820;9.226;2024-03-02T16:20:01;1.63;;;1.40;;
19863;SDS011;10094;48.820;9.226;2024-03-02T16:26:47;2.35;;;1.85;;
19863;SDS011;10094;48.820;9.226;2024-03-02T16:33:30;4.85;;;2.65;;
19863;SDS011;10094;48.820;9.226;2024-03-02T16:40:15;4.07;;;3.03;;
19863;SDS011;10094;48.820;9.226;2024-03-02T16:46:58;5.20;;;3.10;;
19863;SDS011;10094;48.820;9.226;2024-03-02T16:53:41;7.30;;;4.68;;
19863;SDS011;10094;48.820;9.226;2024-03-02T17:00:23;9.18;;;5.22;;
19863;SDS011;10094;48.820;9.226;2024-03-02T17:07:06;4.80;;;4.30;;
19863;SDS011;10094;48.820;9.226;2024-03-02T17:13:49;6.18;;;3.78;;
19863;SDS011;10094;48.820;9.226;2024-03-02T17:20:39;8.32;;;4.57;;
19863;SDS011;10094;48.820;9.226;2024-03-02T17:27:22;15.40;;;8.70;;
19863;SDS011;10094;48.820;9.226;2024-03-02T17:34:05;6.75;;;4.35;;
19863;SDS011;10094;48.820;9.226;2024-03-02T17:40:47;10.30;;;4.65;;
19863;SDS011;10094;48.820;9.226;2024-03-02T17:47:30;6.63;;;4.90;;
19863;SDS011;10094;48.820;9.226;2024-03-02T17:54:13;8.98;;;6.50;;
19863;SDS011;10094;48.820;9.226;2024-03-02T18:00:55;8.60;;;6.68;;
19863;SDS011;10094;48.820;9.226;2024-03-02T18:07:39;8.55;;;7.15;;
19863;SDS011;10094;48.820;9.226;2024-03-02T18:14:22;7.90;;;6.40;;
19863;SDS011;10094;48.820;9.226;2024-03-02T18:21:05;7.97;;;6.07;;
19863;SDS011;10094;48.820;9.226;2024-03-02T18:27:47;8.85;;;5.75;;
19863;SDS011;10094;48.820;9.226;2024-03-02T18:34:30;11.40;;;7.15;;
19863;SDS011;10094;48.820;9.226;2024-03-02T18:41:13;11.57;;;7.20;;
19863;SDS011;10094;48.820;9.226;2024-03-02T18:47:56;9.15;;;6.45;;
19863;SDS011;10094;48.820;9.226;2024-03-02T18:54:42;8.63;;;6.40;;
19863;SDS011;10094;48.820;9.226;2024-03-02T19:01:25;9.65;;;6.75;;
19863;SDS011;10094;48.820;9.226;2024-03-02T19:08:07;9.43;;;6.85;;
19863;SDS011;10094;48.820;9.226;2024-03-02T19:14:55;11.82;;;7.05;;
19863;SDS011;10094;48.820;9.226;2024-03-02T19:21:38;12.15;;;8.30;;
19863;SDS011;10094;48.820;9.226;2024-03-02T19:28:20;17.42;;;9.38;;
19863;SDS011;10094;48.820;9.226;2024-03-02T19:35:03;14.00;;;9.07;;
19863;SDS011;10094;48.820;9.226;2024-03-02T19:41:46;17.88;;;8.55;;
19863;SDS011;10094;48.820;9.226;2024-03-02T19:48:29;13.07;;;9.32;;
19863;SDS011;10094;48.820;9.226;2024-03-02T19:55:11;13.75;;;10.13;;
19863;SDS011;10094;48.820;9.226;2024-03-02T20:01:54;17.02;;;11.27;;
19863;SDS011;10094;48.820;9.226;2024-03-02T20:08:37;14.40;;;10.80;;
19863;SDS011;10094;48.820;9.226;2024-03-02T20:15:20;17.88;;;12.57;;
19863;SDS011;10094;48.820;9.226;2024-03-02T20:22:02;18.45;;;12.45;;
19863;SDS011;10094;48.820;9.226;2024-03-02T20:28:46;17.17;;;11.57;;
19863;SDS011;10094;48.820;9.226;2024-03-02T20:35:28;22.27;;;14.60;;
19863;SDS011;10094;48.820;9.226;2024-03-02T20:42:11;21.00;;;13.77;;
19863;SDS011;10094;48.820;9.226;2024-03-02T20:48:54;24.33;;;13.82;;
19863;SDS011;10094;48.820;9.226;2024-03-02T20:55:38;21.42;;;14.52;;
19863;SDS011;10094;48.820;9.226;2024-03-02T21:02:21;22.73;;;14.73;;
19863;SDS011;10094;48.820;9.226;2024-03-02T21:09:04;24.50;;;16.40;;
19863;SDS011;10094;48.820;9.226;2024-03-02T21:15:48;27.08;;;17.35;;
19863;SDS011;10094;48.820;9.226;2024-03-02T21:22:32;25.92;;;16.70;;
19863;SDS011;10094;48.820;9.226;2024-03-02T21:29:15;28.63;;;17.27;;
19863;SDS011;10094;48.820;9.226;2024-03-02T21:36:01;24.17;;;16.63;;
19863;SDS011;10094;48.820;9.226;2024-03-02T21:42:45;26.13;;;17.60;;
19863;SDS011;10094;48.820;9.226;2024-03-02T21:49:28;30.05;;;18.50;;
19863;SDS011;10094;48.820;9.226;2024-03-02T21:56:11;29.08;;;17.55;;
19863;SDS011;10094;48.820;9.226;2024-03-02T22:02:54;28.55;;;17.55;;
19863;SDS011;10094;48.820;9.226;2024-03-02T22:09:40;32.67;;;20.17;;
19863;SDS011;10094;48.820;9.226;2024-03-02T22:16:23;31.80;;;18.20;;
19863;SDS011;10094;48.820;9.226;2024-03-02T22:23:07;35.30;;;20.85;;
19863;SDS011;10094;48.820;9.226;2024-03-02T22:29:49;33.03;;;20.88;;
19863;SDS011;10094;48.820;9.226;2024-03-02T22:36:32;30.33;;;18.83;;
19863;SDS011;10094;48.820;9.226;2024-03-02T22:43:15;27.35;;;17.70;;
19863;SDS011;10094;48.820;9.226;2024-03-02T22:49:57;28.85;;;17.42;;
19863;SDS011;10094;48.820;9.226;2024-03-02T22:56:40;33.17;;;20.67;;
19863;SDS011;10094;48.820;9.226;2024-03-02T23:03:23;32.20;;;19.90;;
19863;SDS011;10094;48.820;9.226;2024-03-02T23:10:05;30.92;;;18.50;;
19863;SDS011;10094;48.820;9.226;2024-03-02T23:16:48;33.60;;;19.13;;
19863;SDS011;10094;48.820;9.226;2024-03-02T23:23:31;34.83;;;19.98;;
19863;SDS011;10094;48.820;9.226;2024-03-02T23:30:13;36.88;;;19.70;;
19863;SDS011;10094;48.820;9.226;2024-03-02T23:37:00;34.67;;;21.58;;
19863;SDS011;10094;48.820;9.226;2024-03-02T23:43:43;39.30;;;22.30;;
19863;SDS011;10094;48.820;9.226;2024-03-02T23:50:25;40.15;;;21.23;;
19863;SDS011;10094;48.820;9.226;2024-03-02T23:57:08;31.63;;;19.17;;
